createdAt,value
2023-03-13T00:00:29.377Z,4.00
2023-03-13T00:03:02.593Z,3.77
2023-03-13T00:05:38.429Z,4.00
2023-03-13T00:08:09.513Z,4.00
2023-03-13T00:10:40.687Z,3.80
2023-03-13T00:13:12.092Z,3.43
2023-03-13T00:15:45.733Z,3.43
2023-03-13T00:18:16.544Z,4.10
2023-03-13T00:20:50.667Z,3.30
2023-03-13T00:23:21.400Z,3.97
2023-03-13T00:25:58.313Z,3.70
2023-03-13T00:28:32.760Z,4.10
2023-03-13T00:31:05.850Z,3.87
2023-03-13T00:33:36.957Z,3.20
2023-03-13T00:36:12.628Z,3.80
2023-03-13T00:38:43.877Z,3.37
2023-03-13T00:41:19.843Z,3.10
2023-03-13T00:43:51.767Z,3.03
2023-03-13T00:46:24.497Z,3.40
2023-03-13T00:48:56.048Z,3.37
2023-03-13T00:51:37.373Z,4.03
2023-03-13T00:54:09.591Z,3.67
2023-03-13T00:56:40.282Z,3.30
2023-03-13T00:59:11.041Z,3.60
2023-03-13T01:01:41.742Z,3.43
2023-03-13T01:04:14.654Z,3.50
2023-03-13T01:06:48.150Z,3.87
2023-03-13T01:09:19.918Z,3.60
2023-03-13T01:11:50.615Z,3.97
2023-03-13T01:14:24.788Z,3.53
2023-03-13T01:16:57.954Z,3.97
2023-03-13T01:19:28.805Z,3.47
2023-03-13T01:22:02.107Z,3.77
2023-03-13T01:24:33.026Z,4.10
2023-03-13T01:27:03.830Z,4.13
2023-03-13T01:29:34.548Z,3.80
2023-03-13T01:32:05.237Z,3.63
2023-03-13T01:34:36.130Z,3.43
2023-03-13T01:37:11.265Z,3.50
2023-03-13T01:39:41.973Z,4.10
2023-03-13T01:42:14.455Z,3.03
2023-03-13T01:44:53.969Z,3.03
2023-03-13T01:47:25.331Z,3.40
2023-03-13T01:49:56.520Z,3.40
2023-03-13T01:52:33.353Z,3.60
2023-03-13T01:55:08.329Z,3.97
2023-03-13T01:57:43.742Z,3.30
2023-03-13T02:00:18.098Z,4.50
2023-03-13T02:02:53.239Z,3.53
2023-03-13T02:05:27.047Z,3.27
2023-03-13T02:08:03.726Z,3.03
2023-03-13T02:10:36.801Z,3.60
2023-03-13T02:13:07.732Z,5.50
2023-03-13T02:15:38.547Z,3.73
2023-03-13T02:18:09.302Z,3.63
2023-03-13T02:20:42.015Z,4.10
2023-03-13T02:23:21.916Z,3.53
2023-03-13T02:25:59.233Z,3.83
2023-03-13T02:28:34.266Z,3.67
2023-03-13T02:31:05.115Z,4.00
2023-03-13T02:33:40.683Z,3.73
2023-03-13T02:36:12.269Z,3.90
2023-03-13T02:38:50.902Z,3.57
2023-03-13T02:41:25.775Z,4.23
2023-03-13T02:43:56.659Z,4.87
2023-03-13T02:46:27.533Z,4.00
2023-03-13T02:49:00.163Z,3.73
2023-03-13T02:51:33.999Z,3.63
2023-03-13T02:54:09.186Z,3.53
2023-03-13T02:56:44.977Z,4.17
2023-03-13T02:59:15.694Z,3.60
2023-03-13T03:01:46.516Z,3.70
2023-03-13T03:04:17.277Z,4.40
2023-03-13T03:06:51.703Z,3.77
2023-03-13T03:09:25.613Z,3.80
2023-03-13T03:11:59.229Z,4.03
2023-03-13T03:14:30.029Z,3.70
2023-03-13T03:17:01.025Z,3.90
2023-03-13T03:19:31.704Z,3.07
2023-03-13T03:22:02.475Z,3.50
2023-03-13T03:24:33.275Z,3.40
2023-03-13T03:27:08.809Z,3.20
2023-03-13T03:29:39.575Z,3.00
2023-03-13T03:32:10.646Z,3.13
2023-03-13T03:34:41.421Z,4.10
2023-03-13T03:37:12.316Z,3.20
2023-03-13T03:39:43.174Z,3.03
2023-03-13T03:42:16.477Z,3.20
2023-03-13T03:44:47.171Z,2.70
2023-03-13T03:47:18.031Z,2.37
2023-03-13T03:49:50.211Z,2.60
2023-03-13T03:52:21.126Z,3.40
2023-03-13T03:54:51.860Z,3.00
2023-03-13T03:57:25.245Z,2.57
2023-03-13T03:59:56.079Z,2.20
2023-03-13T04:02:29.557Z,3.20
2023-03-13T04:05:00.340Z,2.30
2023-03-13T04:07:31.360Z,2.80
2023-03-13T04:10:02.478Z,2.20
2023-03-13T04:12:35.790Z,2.50
2023-03-13T04:15:07.128Z,1.67
2023-03-13T04:17:40.690Z,2.17
2023-03-13T04:20:16.011Z,2.83
2023-03-13T04:22:47.039Z,2.17
2023-03-13T04:25:17.850Z,2.13
2023-03-13T04:27:51.391Z,1.73
2023-03-13T04:30:22.363Z,1.53
2023-03-13T04:32:53.702Z,2.00
2023-03-13T04:35:24.595Z,1.87
2023-03-13T04:37:55.623Z,1.93
2023-03-13T04:40:26.385Z,1.87
2023-03-13T04:42:59.661Z,2.63
2023-03-13T04:45:30.691Z,1.90
2023-03-13T04:48:01.489Z,2.20
2023-03-13T04:50:32.288Z,2.37
2023-03-13T04:53:05.667Z,1.80
2023-03-13T04:55:36.460Z,1.97
2023-03-13T04:58:10.093Z,2.00
2023-03-13T05:00:43.292Z,2.20
2023-03-13T05:03:14.312Z,1.83
2023-03-13T05:05:45.093Z,2.20
2023-03-13T05:08:15.851Z,2.17
2023-03-13T05:10:46.964Z,2.00
2023-03-13T05:13:20.358Z,2.40
2023-03-13T05:15:51.161Z,2.40
2023-03-13T05:18:21.942Z,2.40
2023-03-13T05:20:52.767Z,2.57
2023-03-13T05:23:23.497Z,2.90
2023-03-13T05:25:54.235Z,2.20
2023-03-13T05:28:27.546Z,2.83
2023-03-13T05:30:58.732Z,2.70
2023-03-13T05:33:29.632Z,2.43
2023-03-13T05:36:00.670Z,2.40
2023-03-13T05:38:31.537Z,2.70
2023-03-13T05:41:02.268Z,2.30
2023-03-13T05:43:35.628Z,2.30
2023-03-13T05:46:06.665Z,2.50
2023-03-13T05:48:37.417Z,2.03
2023-03-13T05:51:08.819Z,2.23
2023-03-13T05:53:39.708Z,3.03
2023-03-13T05:56:10.713Z,2.93
2023-03-13T05:58:43.973Z,2.60
2023-03-13T06:01:16.082Z,2.77
2023-03-13T06:03:46.883Z,3.37
2023-03-13T06:06:17.687Z,3.40
2023-03-13T06:08:48.589Z,3.30
2023-03-13T06:11:19.340Z,3.20
2023-03-13T06:13:54.220Z,3.10
2023-03-13T06:16:25.111Z,3.60
2023-03-13T06:18:55.947Z,3.07
2023-03-13T06:21:26.664Z,2.87
2023-03-13T06:23:58.149Z,2.80
2023-03-13T06:26:28.986Z,2.57
2023-03-13T06:29:02.381Z,2.30
2023-03-13T06:31:33.138Z,2.33
2023-03-13T06:34:04.021Z,2.40
2023-03-13T06:36:34.761Z,1.80
2023-03-13T06:39:05.931Z,2.00
2023-03-13T06:41:36.680Z,1.90
2023-03-13T06:44:12.804Z,2.17
2023-03-13T06:46:43.589Z,1.57
2023-03-13T06:49:14.307Z,1.77
2023-03-13T06:51:47.278Z,1.97
2023-03-13T06:54:20.809Z,2.43
2023-03-13T06:56:51.476Z,1.60
2023-03-13T06:59:24.832Z,1.73
2023-03-13T07:01:55.544Z,1.60
2023-03-13T07:04:26.414Z,1.83
2023-03-13T07:06:57.117Z,1.90
2023-03-13T07:09:27.887Z,1.70
2023-03-13T07:11:59.931Z,1.70
2023-03-13T07:14:33.741Z,1.60
2023-03-13T07:17:04.500Z,1.80
2023-03-13T07:19:35.339Z,1.80
2023-03-13T07:22:06.067Z,1.57
2023-03-13T07:24:36.879Z,1.90
2023-03-13T07:27:08.341Z,1.60
2023-03-13T07:29:46.777Z,1.70
2023-03-13T07:32:17.613Z,1.73
2023-03-13T07:34:48.381Z,1.83
2023-03-13T07:37:20.054Z,1.70
2023-03-13T07:39:53.028Z,2.40
2023-03-13T07:42:23.797Z,1.97
2023-03-13T07:44:57.111Z,1.97
2023-03-13T07:47:27.947Z,1.67
2023-03-13T07:50:00.711Z,2.20
2023-03-13T07:52:32.541Z,1.73
2023-03-13T07:55:03.228Z,2.03
2023-03-13T07:57:34.077Z,2.30
2023-03-13T08:00:13.459Z,1.80
2023-03-13T08:02:44.136Z,1.67
2023-03-13T08:05:14.952Z,2.13
2023-03-13T08:07:47.714Z,2.30
2023-03-13T08:10:18.687Z,2.00
2023-03-13T08:12:49.673Z,2.20
2023-03-13T08:15:26.137Z,2.10
2023-03-13T08:17:59.711Z,2.20
2023-03-13T08:20:30.401Z,2.00
2023-03-13T08:23:01.240Z,2.13
2023-03-13T08:25:32.183Z,2.20
2023-03-13T08:28:03.197Z,2.20
2023-03-13T08:30:38.873Z,2.30
2023-03-13T08:33:09.633Z,2.17
2023-03-13T08:35:40.375Z,2.20
2023-03-13T08:38:11.109Z,2.10
2023-03-13T08:40:41.852Z,2.50
2023-03-13T08:43:12.610Z,2.20
2023-03-13T08:45:45.951Z,2.23
2023-03-13T08:48:16.907Z,2.97
2023-03-13T08:50:47.729Z,2.10
2023-03-13T08:53:18.404Z,2.40
2023-03-13T08:55:55.822Z,2.60
2023-03-13T08:58:26.729Z,2.10
2023-03-13T09:01:04.901Z,2.43
2023-03-13T09:03:36.122Z,1.90
2023-03-13T09:06:08.015Z,2.57
2023-03-13T09:08:39.674Z,2.50
2023-03-13T09:11:12.378Z,2.43
2023-03-13T09:13:48.062Z,2.53
2023-03-13T09:16:23.197Z,2.73
2023-03-13T09:18:54.707Z,2.57
2023-03-13T09:21:27.028Z,2.70
2023-03-13T09:23:58.002Z,2.40
2023-03-13T09:26:29.774Z,2.60
2023-03-13T09:29:03.934Z,2.40
2023-03-13T09:31:38.322Z,2.10
2023-03-13T09:34:09.163Z,2.90
2023-03-13T09:36:39.942Z,2.80
2023-03-13T09:39:10.810Z,2.70
2023-03-13T09:41:46.240Z,2.90
2023-03-13T09:44:23.237Z,2.77
2023-03-13T09:47:06.693Z,3.07
2023-03-13T09:49:40.550Z,2.33
2023-03-13T09:52:18.909Z,2.60
2023-03-13T09:54:53.590Z,2.67
2023-03-13T09:57:34.334Z,2.47
2023-03-13T10:00:11.470Z,2.70
2023-03-13T10:02:48.711Z,2.47
2023-03-13T10:05:23.171Z,3.03
2023-03-13T10:07:58.562Z,2.83
2023-03-13T10:10:41.033Z,2.67
2023-03-13T10:13:19.688Z,2.57
2023-03-13T10:15:54.286Z,2.20
2023-03-13T10:18:29.061Z,2.60
2023-03-13T10:21:03.645Z,2.50
2023-03-13T10:23:46.294Z,2.20
2023-03-13T10:26:19.421Z,2.17
2023-03-13T10:28:50.923Z,2.53
2023-03-13T10:31:29.829Z,2.43
2023-03-13T10:34:13.194Z,2.30
2023-03-13T10:36:46.105Z,2.10
2023-03-13T10:39:19.498Z,2.27
2023-03-13T10:41:51.562Z,2.10
2023-03-13T10:44:24.399Z,1.90
2023-03-13T10:46:55.421Z,2.10
2023-03-13T10:49:36.155Z,2.10
2023-03-13T10:52:08.607Z,1.73
2023-03-13T10:54:42.746Z,1.83
2023-03-13T10:57:31.280Z,2.13
2023-03-13T11:00:07.129Z,2.17
2023-03-13T11:02:45.199Z,1.90
2023-03-13T11:05:39.649Z,1.73
2023-03-13T11:08:24.147Z,1.77
2023-03-13T11:10:59.310Z,1.70
2023-03-13T11:13:38.350Z,1.80
2023-03-13T11:16:22.656Z,1.50
2023-03-13T11:19:19.148Z,1.30
2023-03-13T11:22:17.442Z,1.60
2023-03-13T11:24:56.344Z,1.40
2023-03-13T11:27:33.989Z,1.67
2023-03-13T11:30:23.211Z,1.30
2023-03-13T11:33:00.506Z,1.50
2023-03-13T11:35:45.101Z,1.30
2023-03-13T11:38:23.838Z,1.30
2023-03-13T11:41:05.943Z,1.50
2023-03-13T11:43:54.889Z,1.40
2023-03-13T11:46:36.057Z,1.37
2023-03-13T11:49:31.855Z,1.40
2023-03-13T11:52:12.438Z,1.47
2023-03-13T11:55:07.751Z,1.40
2023-03-13T11:57:47.216Z,1.00
2023-03-13T12:00:26.642Z,1.30
2023-03-13T12:03:04.909Z,0.90
2023-03-13T12:05:43.474Z,1.03
2023-03-13T12:08:18.738Z,1.20
2023-03-13T12:11:03.269Z,1.40
2023-03-13T12:13:38.663Z,0.90
2023-03-13T12:16:15.050Z,1.00
2023-03-13T12:18:48.569Z,1.33
2023-03-13T12:21:25.118Z,0.80
2023-03-13T12:24:05.019Z,1.20
2023-03-13T12:26:45.704Z,1.20
2023-03-13T12:29:24.963Z,1.07
2023-03-13T12:32:02.335Z,0.90
2023-03-13T12:34:38.988Z,0.80
2023-03-13T12:37:15.421Z,1.00
2023-03-13T12:39:52.319Z,1.20
2023-03-13T12:42:42.547Z,1.00
2023-03-13T12:45:19.652Z,1.03
2023-03-13T12:48:21.020Z,1.00
2023-03-13T12:51:12.434Z,0.73
2023-03-13T12:54:25.391Z,1.10
2023-03-13T12:57:18.039Z,1.10
2023-03-13T12:59:57.059Z,1.00
2023-03-13T13:02:31.079Z,0.90
2023-03-13T13:05:04.179Z,0.77
2023-03-13T13:07:37.173Z,0.83
2023-03-13T13:10:25.269Z,1.00
2023-03-13T13:13:22.252Z,0.80
2023-03-13T13:16:03.409Z,0.80
2023-03-13T13:18:35.644Z,0.70
2023-03-13T13:21:26.578Z,0.93
2023-03-13T13:24:18.431Z,0.90
2023-03-13T13:26:55.196Z,0.80
2023-03-13T13:29:58.706Z,1.20
2023-03-13T13:32:54.526Z,0.93
2023-03-13T13:35:28.840Z,1.07
2023-03-13T13:38:29.716Z,1.20
2023-03-13T13:41:06.884Z,1.00
2023-03-13T13:43:41.944Z,0.90
2023-03-13T13:46:28.690Z,1.03
2023-03-13T13:49:18.356Z,1.30
2023-03-13T13:52:19.236Z,0.90
2023-03-13T13:54:58.843Z,1.00
2023-03-13T13:57:32.555Z,1.10
2023-03-13T14:00:19.654Z,0.90
2023-03-13T14:02:53.516Z,0.90
2023-03-13T14:05:27.065Z,1.13
2023-03-13T14:08:10.834Z,0.90
2023-03-13T14:10:44.027Z,1.03
2023-03-13T14:13:18.222Z,1.03
2023-03-13T14:15:52.930Z,1.23
2023-03-13T14:18:26.976Z,0.90
2023-03-13T14:21:03.408Z,0.80
2023-03-13T14:23:42.148Z,1.10
2023-03-13T14:26:17.846Z,0.90
2023-03-13T14:28:51.271Z,1.03
2023-03-13T14:31:33.173Z,1.00
2023-03-13T14:34:06.223Z,1.00
2023-03-13T14:36:49.525Z,1.10
2023-03-13T14:39:22.906Z,1.20
2023-03-13T14:41:53.910Z,1.10
2023-03-13T14:44:27.651Z,1.20
2023-03-13T14:47:07.760Z,1.60
2023-03-13T14:49:40.315Z,1.10
2023-03-13T14:52:21.349Z,1.30
2023-03-13T14:54:57.446Z,1.27
2023-03-13T14:57:29.861Z,1.30
2023-03-13T15:00:31.742Z,1.33
2023-03-13T15:03:32.717Z,1.00
2023-03-13T15:06:19.108Z,1.30
2023-03-13T15:08:51.810Z,1.20
2023-03-13T15:11:28.168Z,1.00
2023-03-13T15:13:59.577Z,1.10
2023-03-13T15:16:31.998Z,1.43
2023-03-13T15:19:05.474Z,0.90
2023-03-13T15:21:37.801Z,1.00
2023-03-13T15:24:16.457Z,0.77
2023-03-13T15:26:49.145Z,1.10
2023-03-13T15:29:20.271Z,1.00
2023-03-13T15:31:51.093Z,1.00
2023-03-13T15:34:25.848Z,1.03
2023-03-13T15:37:02.441Z,1.03
2023-03-13T15:39:33.157Z,1.03
2023-03-13T15:42:04.226Z,0.90
2023-03-13T15:44:35.191Z,1.03
2023-03-13T15:47:05.966Z,1.00
2023-03-13T15:49:39.408Z,1.10
2023-03-13T15:52:17.608Z,0.90
2023-03-13T15:54:50.313Z,1.10
2023-03-13T15:57:25.056Z,1.40
2023-03-13T15:59:56.910Z,1.00
2023-03-13T16:02:28.298Z,1.00
2023-03-13T16:05:01.687Z,1.00
2023-03-13T16:07:32.376Z,1.30
2023-03-13T16:10:03.138Z,1.40
2023-03-13T16:12:33.828Z,1.23
2023-03-13T16:15:05.237Z,1.70
2023-03-13T16:17:36.068Z,1.50
2023-03-13T16:20:16.980Z,1.40
2023-03-13T16:22:47.944Z,1.20
2023-03-13T16:25:22.216Z,1.30
2023-03-13T16:27:55.095Z,1.23
2023-03-13T16:30:28.146Z,1.30
2023-03-13T16:32:59.791Z,1.00
2023-03-13T16:35:33.471Z,1.13
2023-03-13T16:38:06.834Z,1.50
2023-03-13T16:40:38.200Z,1.43
2023-03-13T16:43:08.932Z,1.10
2023-03-13T16:45:39.665Z,1.27
2023-03-13T16:48:16.634Z,1.17
2023-03-13T16:50:50.559Z,1.20
2023-03-13T16:53:21.345Z,1.17
2023-03-13T16:55:53.021Z,1.47
2023-03-13T16:58:24.240Z,1.13
2023-03-13T17:01:05.009Z,1.20
2023-03-13T17:03:36.595Z,1.50
2023-03-13T17:06:13.228Z,1.50
2023-03-13T17:08:44.665Z,1.27
2023-03-13T17:11:18.601Z,1.67
2023-03-13T17:13:51.008Z,1.40
2023-03-13T17:16:23.446Z,1.83
2023-03-13T17:18:56.222Z,1.87
2023-03-13T17:21:33.929Z,2.00
2023-03-13T17:24:07.083Z,2.17
2023-03-13T17:26:39.604Z,1.70
2023-03-13T17:29:15.412Z,1.70
2023-03-13T17:31:46.195Z,2.03
2023-03-13T17:34:16.910Z,1.70
2023-03-13T17:36:50.213Z,2.37
2023-03-13T17:39:21.461Z,2.10
2023-03-13T17:41:53.802Z,2.00
2023-03-13T17:44:24.526Z,2.07
2023-03-13T17:46:55.408Z,2.00
2023-03-13T17:49:26.319Z,1.60
2023-03-13T17:51:59.832Z,1.63
2023-03-13T17:54:30.607Z,1.80
2023-03-13T17:57:01.263Z,1.70
2023-03-13T17:59:31.951Z,2.33
2023-03-13T18:02:05.566Z,1.97
2023-03-13T18:04:38.609Z,1.80
2023-03-13T18:07:19.739Z,2.00
2023-03-13T18:09:50.450Z,2.03
2023-03-13T18:12:21.441Z,2.20
2023-03-13T18:14:52.332Z,1.90
2023-03-13T18:17:26.716Z,1.73
2023-03-13T18:20:00.289Z,1.87
2023-03-13T18:22:33.618Z,1.80
2023-03-13T18:25:04.367Z,1.83
2023-03-13T18:27:35.118Z,1.73
2023-03-13T18:30:17.367Z,2.00
2023-03-13T18:32:48.556Z,1.70
2023-03-13T18:35:20.192Z,1.60
2023-03-13T18:37:55.067Z,1.60
2023-03-13T18:40:28.899Z,2.40
2023-03-13T18:43:00.127Z,1.93
2023-03-13T18:45:34.342Z,2.00
2023-03-13T18:48:14.474Z,2.17
2023-03-13T18:50:46.733Z,2.10
2023-03-13T18:53:22.503Z,1.97
2023-03-13T18:55:53.228Z,1.80
2023-03-13T18:58:23.932Z,1.90
2023-03-13T19:00:54.871Z,1.53
2023-03-13T19:03:25.808Z,1.90
2023-03-13T19:05:56.792Z,1.87
2023-03-13T19:08:30.096Z,1.70
2023-03-13T19:11:00.875Z,2.07
2023-03-13T19:13:38.299Z,2.03
2023-03-13T19:16:17.108Z,1.87
2023-03-13T19:18:49.166Z,2.00
2023-03-13T19:21:24.301Z,1.87
2023-03-13T19:24:00.708Z,1.67
2023-03-13T19:26:35.239Z,2.03
2023-03-13T19:29:06.946Z,2.70
2023-03-13T19:31:40.684Z,2.00
2023-03-13T19:34:12.046Z,1.83
2023-03-13T19:36:44.932Z,2.47
2023-03-13T19:39:20.278Z,1.80
2023-03-13T19:41:51.052Z,2.30
2023-03-13T19:44:24.206Z,2.43
2023-03-13T19:46:56.052Z,1.87
2023-03-13T19:49:32.372Z,2.03
2023-03-13T19:52:07.996Z,2.00
2023-03-13T19:54:41.370Z,1.83
2023-03-13T19:57:13.877Z,2.80
2023-03-13T19:59:44.552Z,2.30
2023-03-13T20:02:16.424Z,2.17
2023-03-13T20:04:47.359Z,1.90
2023-03-13T20:07:18.088Z,2.20
2023-03-13T20:09:51.539Z,2.13
2023-03-13T20:12:22.363Z,2.00
2023-03-13T20:14:53.115Z,2.23
2023-03-13T20:17:24.249Z,2.00
2023-03-13T20:19:55.007Z,2.07
2023-03-13T20:22:25.798Z,2.80
2023-03-13T20:25:02.115Z,2.60
2023-03-13T20:27:33.258Z,2.10
2023-03-13T20:30:04.148Z,3.00
2023-03-13T20:32:35.139Z,1.87
2023-03-13T20:35:12.938Z,2.33
2023-03-13T20:37:43.896Z,2.20
2023-03-13T20:40:17.795Z,1.93
2023-03-13T20:42:48.629Z,2.10
2023-03-13T20:45:19.474Z,1.97
2023-03-13T20:47:53.702Z,2.00
2023-03-13T20:50:24.692Z,1.90
2023-03-13T20:52:57.492Z,2.50
2023-03-13T20:55:34.959Z,2.43
2023-03-13T20:58:08.742Z,2.20
2023-03-13T21:00:42.034Z,1.80
2023-03-13T21:03:14.139Z,2.10
2023-03-13T21:05:45.236Z,2.57
2023-03-13T21:08:15.939Z,2.00
2023-03-13T21:10:49.274Z,1.97
2023-03-13T21:13:19.968Z,2.50
2023-03-13T21:15:50.800Z,1.50
2023-03-13T21:18:21.527Z,2.30
2023-03-13T21:20:52.283Z,2.50
2023-03-13T21:23:23.146Z,2.00
2023-03-13T21:25:59.861Z,2.03
2023-03-13T21:28:31.201Z,2.27
2023-03-13T21:31:01.970Z,1.90
2023-03-13T21:33:32.770Z,2.13
2023-03-13T21:36:03.580Z,1.87
2023-03-13T21:38:34.472Z,1.97
2023-03-13T21:41:10.150Z,2.00
2023-03-13T21:43:42.311Z,2.27
2023-03-13T21:46:14.332Z,2.00
2023-03-13T21:48:47.562Z,2.70
2023-03-13T21:51:18.906Z,2.07
2023-03-13T21:53:49.645Z,1.87
2023-03-13T21:56:23.129Z,2.20
2023-03-13T21:58:54.200Z,1.90
2023-03-13T22:01:24.936Z,1.80
2023-03-13T22:03:55.985Z,2.60
2023-03-13T22:06:26.845Z,1.77
2023-03-13T22:08:57.593Z,1.77
2023-03-13T22:11:31.098Z,1.80
2023-03-13T22:14:01.940Z,1.90
2023-03-13T22:16:32.691Z,2.03
2023-03-13T22:19:03.570Z,1.97
2023-03-13T22:21:34.270Z,1.80
2023-03-13T22:24:05.251Z,1.90
2023-03-13T22:26:38.789Z,1.97
2023-03-13T22:29:09.528Z,2.20
2023-03-13T22:31:42.119Z,1.83
2023-03-13T22:34:12.821Z,1.93
2023-03-13T22:36:43.856Z,1.83
2023-03-13T22:39:14.813Z,1.60
2023-03-13T22:41:48.215Z,1.90
2023-03-13T22:44:26.235Z,2.20
2023-03-13T22:46:56.971Z,1.67
2023-03-13T22:49:28.310Z,1.83
2023-03-13T22:51:59.401Z,1.70
2023-03-13T22:54:31.506Z,1.60
2023-03-13T22:57:04.976Z,2.00
2023-03-13T22:59:36.071Z,2.13
2023-03-13T23:02:06.931Z,1.87
2023-03-13T23:04:37.758Z,1.97
2023-03-13T23:07:08.460Z,1.80
2023-03-13T23:09:39.450Z,1.73
2023-03-13T23:12:13.174Z,1.90
2023-03-13T23:14:43.920Z,1.90
2023-03-13T23:17:14.949Z,2.00
2023-03-13T23:19:45.717Z,2.23
2023-03-13T23:22:18.092Z,2.27
2023-03-13T23:24:49.305Z,2.00
2023-03-13T23:27:22.833Z,1.70
2023-03-13T23:29:54.257Z,1.83
2023-03-13T23:32:25.265Z,2.07
2023-03-13T23:34:56.089Z,1.63
2023-03-13T23:37:26.950Z,1.60
2023-03-13T23:40:00.973Z,2.27
2023-03-13T23:42:37.706Z,1.73
2023-03-13T23:45:09.544Z,2.10
2023-03-13T23:47:42.255Z,1.90
2023-03-13T23:50:14.063Z,1.67
2023-03-13T23:52:45.308Z,1.97
2023-03-13T23:55:18.199Z,1.50
2023-03-13T23:57:53.873Z,1.70
